createdAt,value
2019-01-22T00:02:15.931Z,155.47
2019-01-22T00:04:44.259Z,153.23
2019-01-22T00:07:11.835Z,146.93
2019-01-22T00:09:39.431Z,139.77
2019-01-22T00:12:07.007Z,142.57
2019-01-22T00:14:34.563Z,142.10
2019-01-22T00:17:02.145Z,141.03
2019-01-22T00:19:29.702Z,156.20
2019-01-22T00:21:57.346Z,148.77
2019-01-22T00:24:24.962Z,145.33
2019-01-22T00:26:52.504Z,163.97
2019-01-22T00:29:20.082Z,152.13
2019-01-22T00:31:47.636Z,162.33
2019-01-22T00:34:15.224Z,158.27
2019-01-22T00:36:42.807Z,158.83
2019-01-22T00:39:10.386Z,163.17
2019-01-22T00:41:37.971Z,166.43
2019-01-22T00:44:06.299Z,163.03
2019-01-22T00:46:33.878Z,174.13
2019-01-22T00:49:01.443Z,166.67
2019-01-22T00:51:29.787Z,177.80
2019-01-22T00:53:57.364Z,170.57
2019-01-22T00:56:25.872Z,158.50
2019-01-22T00:58:53.443Z,172.40
2019-01-22T01:01:21.015Z,166.13
2019-01-22T01:03:48.570Z,179.67
2019-01-22T01:06:16.147Z,152.93
2019-01-22T01:08:43.728Z,156.60
2019-01-22T01:11:11.315Z,157.10
2019-01-22T01:13:38.904Z,148.70
2019-01-22T01:16:06.451Z,150.73
2019-01-22T01:18:34.037Z,146.27
2019-01-22T01:21:01.595Z,159.87
2019-01-22T01:23:29.158Z,159.53
2019-01-22T01:25:56.745Z,151.23
2019-01-22T01:28:24.312Z,175.33
2019-01-22T01:30:51.906Z,166.23
2019-01-22T01:33:19.464Z,150.07
2019-01-22T01:35:47.030Z,144.17
2019-01-22T01:38:14.608Z,153.13
2019-01-22T01:40:43.185Z,151.67
2019-01-22T01:43:10.802Z,134.73
2019-01-22T01:45:39.123Z,113.83
2019-01-22T01:48:06.702Z,77.23
2019-01-22T01:50:34.449Z,81.73
2019-01-22T01:53:03.079Z,61.60
2019-01-22T01:55:31.430Z,51.93
2019-01-22T01:57:59.822Z,46.60
2019-01-22T02:00:27.383Z,41.20
2019-01-22T02:02:54.931Z,46.80
2019-01-22T02:05:22.510Z,43.23
2019-01-22T02:07:50.831Z,40.73
2019-01-22T02:10:18.429Z,44.23
2019-01-22T02:12:46.864Z,37.97
2019-01-22T02:15:20.911Z,48.57
2019-01-22T02:17:59.003Z,40.70
2019-01-22T02:20:34.240Z,45.73
2019-01-22T02:23:13.122Z,44.17
2019-01-22T02:25:53.407Z,46.50
2019-01-22T02:28:29.852Z,47.13
2019-01-22T02:31:08.184Z,46.80
2019-01-22T02:33:47.634Z,45.50
2019-01-22T02:36:24.807Z,54.77
2019-01-22T02:38:59.218Z,61.70
2019-01-22T02:41:26.764Z,94.70
2019-01-22T02:44:15.111Z,91.77
2019-01-22T02:46:47.551Z,123.20
2019-01-22T02:49:27.998Z,126.70
2019-01-22T02:54:52.810Z,131.48
2019-01-22T03:00:42.827Z,134.85
2019-01-22T03:03:19.175Z,131.27
2019-01-22T03:05:50.290Z,114.83
2019-01-22T03:08:24.809Z,101.00
2019-01-22T03:13:59.267Z,118.55
2019-01-22T03:19:36.699Z,113.65
2019-01-22T03:22:38.871Z,121.20
2019-01-22T03:25:23.059Z,115.07
2019-01-22T03:27:56.007Z,127.30
2019-01-22T03:33:32.672Z,135.68
2019-01-22T03:36:08.624Z,136.90
2019-01-22T03:38:37.764Z,148.03
2019-01-22T03:41:06.143Z,128.40
2019-01-22T03:43:57.075Z,135.67
2019-01-22T03:46:46.204Z,132.83
2019-01-22T03:49:19.455Z,142.63
2019-01-22T03:54:44.095Z,141.07
2019-01-22T03:57:22.772Z,140.43
2019-01-22T03:59:51.127Z,150.53
2019-01-22T04:02:19.472Z,142.60
2019-01-22T04:04:47.062Z,136.63
2019-01-22T04:07:14.617Z,133.20
2019-01-22T04:09:42.219Z,144.43
2019-01-22T04:12:09.806Z,146.27
2019-01-22T04:14:37.359Z,144.57
2019-01-22T04:17:04.938Z,143.27
2019-01-22T04:19:32.527Z,141.97
2019-01-22T04:22:00.092Z,149.60
2019-01-22T04:24:45.243Z,140.80
2019-01-22T04:27:13.722Z,142.73
2019-01-22T04:29:54.920Z,141.93
2019-01-22T04:32:22.551Z,142.37
2019-01-22T04:34:53.665Z,139.27
2019-01-22T04:37:37.056Z,141.17
2019-01-22T04:40:22.416Z,124.40
2019-01-22T04:43:07.618Z,133.23
2019-01-22T04:45:49.611Z,134.40
2019-01-22T04:48:34.850Z,134.50
2019-01-22T04:51:13.178Z,135.87
2019-01-22T04:53:46.531Z,125.13
2019-01-22T04:59:31.389Z,130.80
2019-01-22T05:05:09.535Z,126.82
2019-01-22T05:07:37.796Z,115.20
2019-01-22T05:10:20.023Z,59.60
2019-01-22T05:12:53.204Z,48.30
2019-01-22T05:15:30.477Z,34.20
2019-01-22T05:18:03.963Z,30.33
2019-01-22T05:20:35.015Z,30.67
2019-01-22T05:23:14.149Z,28.90
2019-01-22T05:25:52.181Z,33.73
2019-01-22T05:28:22.380Z,28.33
2019-01-22T05:30:50.708Z,28.87
2019-01-22T05:33:29.114Z,27.70
2019-01-22T05:39:12.071Z,28.50
2019-01-22T05:41:58.284Z,32.03
2019-01-22T05:44:31.551Z,29.93
2019-01-22T05:47:05.058Z,29.57
2019-01-22T05:49:54.353Z,30.13
2019-01-22T05:52:25.504Z,27.97
2019-01-22T05:54:55.644Z,36.53
2019-01-22T05:57:23.215Z,31.33
2019-01-22T05:59:55.145Z,56.47
2019-01-22T06:02:23.683Z,116.20
2019-01-22T06:04:51.232Z,133.13
2019-01-22T06:07:23.285Z,324.27
2019-01-22T06:10:25.286Z,47.40
2019-01-22T06:13:20.624Z,28.50
2019-01-22T06:16:00.670Z,37.50
2019-01-22T06:18:35.895Z,31.57
2019-01-22T06:21:19.964Z,32.20
2019-01-22T06:23:48.468Z,30.30
2019-01-22T06:26:19.527Z,29.47
2019-01-22T06:28:52.988Z,36.30
2019-01-22T06:31:47.012Z,46.40
2019-01-22T06:37:46.403Z,25.08
2019-01-22T06:40:14.806Z,25.40
2019-01-22T06:42:51.257Z,27.07
2019-01-22T06:48:33.833Z,41.03
2019-01-22T06:51:27.911Z,46.17
2019-01-22T06:54:08.156Z,20.63
2019-01-22T06:59:49.967Z,40.05
2019-01-22T07:02:32.424Z,31.93
2019-01-22T07:05:04.961Z,41.70
2019-01-22T07:10:51.043Z,25.90
2019-01-22T07:13:41.937Z,31.57
2019-01-22T07:16:10.308Z,33.47
2019-01-22T07:18:41.768Z,27.63
2019-01-22T07:21:32.631Z,29.07
2019-01-22T07:24:03.967Z,30.60
2019-01-22T07:26:51.294Z,37.57
2019-01-22T07:32:53.231Z,43.97
2019-01-22T07:35:22.454Z,29.50
2019-01-22T07:37:50.882Z,31.03
2019-01-22T07:40:26.858Z,37.53
2019-01-22T07:42:58.045Z,26.87
2019-01-22T07:45:34.284Z,36.50
2019-01-22T07:48:02.600Z,27.37
2019-01-22T07:50:49.830Z,30.40
2019-01-22T07:53:23.935Z,38.90
2019-01-22T07:56:07.948Z,33.70
2019-01-22T07:58:46.146Z,29.63
2019-01-22T08:01:20.414Z,30.47
2019-01-22T08:06:58.000Z,27.40
2019-01-22T08:09:33.442Z,36.67
2019-01-22T08:12:18.411Z,27.37
2019-01-22T08:14:54.832Z,27.80
2019-01-22T08:17:38.662Z,22.77
2019-01-22T08:20:12.640Z,41.00
2019-01-22T08:23:01.811Z,37.37
2019-01-22T08:28:43.445Z,36.60
2019-01-22T08:34:40.923Z,34.80
2019-01-22T08:37:17.760Z,24.70
2019-01-22T08:39:47.170Z,23.17
2019-01-22T08:42:32.335Z,25.30
2019-01-22T08:45:10.760Z,23.37
2019-01-22T08:47:47.907Z,35.57
2019-01-22T08:50:17.300Z,22.67
2019-01-22T08:52:44.850Z,27.27
2019-01-22T08:55:17.282Z,36.63
2019-01-22T08:57:56.412Z,38.03
2019-01-22T09:00:37.696Z,24.07
2019-01-22T09:03:24.919Z,50.10
2019-01-22T09:08:58.078Z,30.75
2019-01-22T09:11:47.151Z,34.83
2019-01-22T09:14:14.724Z,42.33
2019-01-22T09:16:51.919Z,43.70
2019-01-22T09:19:26.107Z,37.93
2019-01-22T09:22:15.240Z,34.63
2019-01-22T09:24:47.479Z,33.87
2019-01-22T09:27:25.674Z,32.63
2019-01-22T09:30:17.797Z,41.17
2019-01-22T09:32:45.334Z,39.43
2019-01-22T09:38:09.079Z,35.70
2019-01-22T09:40:36.653Z,53.60
2019-01-22T09:43:04.204Z,37.10
2019-01-22T09:45:31.752Z,40.80
2019-01-22T09:47:59.312Z,34.40
2019-01-22T09:50:26.879Z,39.73
2019-01-22T09:52:54.452Z,33.73
2019-01-22T09:55:22.502Z,38.50
2019-01-22T09:57:50.352Z,50.77
2019-01-22T10:00:17.927Z,56.97
2019-01-22T10:02:45.501Z,32.50
2019-01-22T10:05:13.044Z,39.17
2019-01-22T10:07:40.581Z,56.43
2019-01-22T10:10:12.843Z,39.20
2019-01-22T10:12:40.384Z,37.03
2019-01-22T10:15:09.583Z,36.03
2019-01-22T10:17:37.124Z,32.30
2019-01-22T10:20:06.325Z,31.53
2019-01-22T10:22:33.872Z,32.20
2019-01-22T10:25:02.208Z,49.50
2019-01-22T10:27:29.775Z,43.30
2019-01-22T10:29:57.325Z,37.20
2019-01-22T10:32:24.894Z,35.33
2019-01-22T10:34:52.435Z,34.63
2019-01-22T10:37:19.973Z,35.27
2019-01-22T10:39:47.549Z,35.27
2019-01-22T10:42:15.136Z,33.83
2019-01-22T10:44:42.700Z,37.13
2019-01-22T10:47:10.236Z,36.07
2019-01-22T10:49:37.782Z,33.80
2019-01-22T10:52:05.348Z,30.87
2019-01-22T10:54:32.898Z,37.83
2019-01-22T10:57:00.463Z,40.63
2019-01-22T10:59:28.023Z,39.17
2019-01-22T11:01:55.591Z,32.07
2019-01-22T11:04:23.134Z,36.80
2019-01-22T11:06:50.695Z,28.73
2019-01-22T11:09:18.241Z,38.20
2019-01-22T11:11:45.808Z,36.20
2019-01-22T11:14:13.354Z,38.77
2019-01-22T11:16:40.919Z,40.87
2019-01-22T11:19:08.459Z,35.40
2019-01-22T11:21:36.027Z,38.43
2019-01-22T11:24:03.639Z,45.43
2019-01-22T11:26:31.944Z,39.83
2019-01-22T11:28:59.515Z,47.93
2019-01-22T11:31:27.059Z,38.43
2019-01-22T11:33:54.623Z,41.00
2019-01-22T11:36:22.168Z,41.97
2019-01-22T11:38:49.743Z,39.37
2019-01-22T11:41:17.288Z,42.73
2019-01-22T11:43:44.863Z,35.40
2019-01-22T11:46:12.492Z,38.53
2019-01-22T11:48:40.029Z,40.90
2019-01-22T11:51:09.372Z,35.00
2019-01-22T11:53:36.911Z,37.90
2019-01-22T11:56:04.453Z,38.53
2019-01-22T11:58:32.035Z,29.67
2019-01-22T12:00:59.610Z,37.10
2019-01-22T12:03:27.154Z,39.53
2019-01-22T12:05:54.728Z,52.77
2019-01-22T12:08:22.267Z,33.60
2019-01-22T12:10:49.838Z,36.97
2019-01-22T12:13:17.381Z,38.30
2019-01-22T12:15:44.928Z,42.23
2019-01-22T12:18:12.491Z,48.13
2019-01-22T12:20:40.052Z,41.13
2019-01-22T12:23:07.619Z,43.60
2019-01-22T12:25:35.165Z,40.57
2019-01-22T12:28:02.737Z,53.33
2019-01-22T12:30:31.139Z,44.77
2019-01-22T12:32:58.752Z,47.17
2019-01-22T12:35:26.322Z,41.60
2019-01-22T12:37:53.889Z,41.43
2019-01-22T12:40:21.419Z,37.27
2019-01-22T12:42:48.991Z,48.43
2019-01-22T12:45:16.568Z,50.70
2019-01-22T12:47:44.134Z,47.57
2019-01-22T12:50:13.539Z,49.50
2019-01-22T12:52:40.288Z,40.93
2019-01-22T12:55:07.857Z,41.30
2019-01-22T12:57:35.409Z,49.03
2019-01-22T13:00:02.974Z,45.47
2019-01-22T13:02:31.283Z,40.77
2019-01-22T13:04:58.845Z,40.90
2019-01-22T13:07:26.392Z,43.17
2019-01-22T13:09:53.937Z,44.03
2019-01-22T13:12:21.504Z,59.23
2019-01-22T13:14:49.043Z,40.17
2019-01-22T13:17:16.612Z,36.93
2019-01-22T13:19:44.151Z,37.20
2019-01-22T13:22:12.488Z,37.90
2019-01-22T13:24:40.028Z,54.37
2019-01-22T13:27:07.635Z,36.58
2019-01-22T13:29:35.313Z,36.90
2019-01-22T13:32:02.865Z,35.20
2019-01-22T13:34:30.453Z,37.10
2019-01-22T13:36:58.107Z,41.87
2019-01-22T13:39:25.679Z,37.20
2019-01-22T13:41:53.256Z,40.23
2019-01-22T13:44:20.816Z,40.13
2019-01-22T13:46:48.352Z,37.60
2019-01-22T13:49:15.887Z,35.70
2019-01-22T13:51:43.452Z,37.70
2019-01-22T13:54:11.328Z,43.57
2019-01-22T13:56:38.891Z,39.00
2019-01-22T14:01:40.363Z,51.00
2019-01-22T14:04:07.904Z,47.53
2019-01-22T14:06:35.435Z,75.60
2019-01-22T14:09:03.000Z,40.20
2019-01-22T14:11:30.531Z,35.40
2019-01-22T14:13:58.855Z,33.33
2019-01-22T14:16:26.400Z,37.77
2019-01-22T14:18:54.943Z,34.40
2019-01-22T14:21:22.488Z,37.50
2019-01-22T14:23:50.053Z,37.73
2019-01-22T14:26:17.620Z,34.00
2019-01-22T14:28:45.179Z,42.30
2019-01-22T14:31:13.596Z,41.13
2019-01-22T14:33:41.160Z,39.37
2019-01-22T14:36:08.709Z,44.67
2019-01-22T14:38:36.247Z,47.20
2019-01-22T14:41:03.813Z,50.57
2019-01-22T14:43:31.347Z,52.03
2019-01-22T14:45:58.919Z,55.57
2019-01-22T14:48:26.464Z,57.83
2019-01-22T14:50:54.040Z,58.43
2019-01-22T14:53:21.575Z,53.40
2019-01-22T14:55:49.875Z,59.57
2019-01-22T14:58:17.442Z,58.50
2019-01-22T15:00:45.017Z,58.75
2019-01-22T15:03:12.584Z,53.30
2019-01-22T15:05:40.127Z,62.47
2019-01-22T15:08:08.689Z,66.53
2019-01-22T15:10:36.235Z,59.03
2019-01-22T15:13:03.799Z,60.43
2019-01-22T15:15:31.360Z,67.13
2019-01-22T15:17:59.920Z,62.50
2019-01-22T15:20:27.459Z,74.13
2019-01-22T15:22:55.038Z,68.50
2019-01-22T15:25:22.584Z,62.80
2019-01-22T15:27:50.133Z,69.57
2019-01-22T15:30:18.492Z,66.93
2019-01-22T15:32:46.039Z,62.83
2019-01-22T15:35:13.646Z,70.13
2019-01-22T15:37:41.191Z,61.67
2019-01-22T15:40:09.648Z,51.73
2019-01-22T15:42:37.241Z,45.60
2019-01-22T15:45:06.304Z,50.53
2019-01-22T15:47:32.416Z,43.80
2019-01-22T15:49:59.960Z,47.47
2019-01-22T15:52:27.539Z,39.37
2019-01-22T15:54:55.879Z,39.67
2019-01-22T15:57:24.344Z,44.47
2019-01-22T15:59:51.911Z,47.93
2019-01-22T16:02:19.496Z,46.83
2019-01-22T16:04:47.031Z,44.03
2019-01-22T16:07:14.605Z,46.27
2019-01-22T16:09:42.182Z,41.83
2019-01-22T16:12:09.724Z,43.63
2019-01-22T16:14:37.288Z,49.33
2019-01-22T16:17:04.827Z,45.67
2019-01-22T16:19:32.381Z,54.93
2019-01-22T16:21:59.943Z,54.00
2019-01-22T16:27:01.517Z,58.73
2019-01-22T16:29:29.096Z,55.13
2019-01-22T16:31:56.640Z,41.50
2019-01-22T16:34:24.230Z,47.00
2019-01-22T16:36:51.807Z,47.90
2019-01-22T16:39:19.430Z,42.93
2019-01-22T16:41:46.978Z,43.00
2019-01-22T16:44:14.520Z,62.37
2019-01-22T16:46:42.097Z,47.23
2019-01-22T16:49:09.648Z,43.23
2019-01-22T16:51:37.222Z,34.90
2019-01-22T16:54:05.557Z,44.77
2019-01-22T16:56:33.105Z,40.03
2019-01-22T16:59:00.654Z,39.67
2019-01-22T17:01:28.235Z,34.13
2019-01-22T17:03:55.780Z,36.83
2019-01-22T17:06:23.351Z,36.10
2019-01-22T17:08:50.929Z,37.83
2019-01-22T17:11:18.468Z,35.70
2019-01-22T17:13:46.048Z,36.77
2019-01-22T17:16:13.607Z,38.07
2019-01-22T17:18:41.175Z,34.27
2019-01-22T17:21:08.719Z,41.27
2019-01-22T17:23:36.290Z,37.00
2019-01-22T17:26:04.627Z,41.17
2019-01-22T17:28:32.175Z,42.93
2019-01-22T17:30:59.756Z,44.00
2019-01-22T17:33:27.339Z,45.70
2019-01-22T17:35:55.660Z,41.40
2019-01-22T17:38:23.235Z,33.83
2019-01-22T17:40:50.814Z,34.90
2019-01-22T17:43:18.351Z,32.30
2019-01-22T17:45:45.921Z,31.07
2019-01-22T17:48:13.495Z,32.30
2019-01-22T17:50:41.803Z,29.83
2019-01-22T17:53:09.380Z,30.20
2019-01-22T17:55:37.853Z,39.57
2019-01-22T17:58:05.422Z,31.00
2019-01-22T18:00:32.972Z,41.03
2019-01-22T18:03:00.540Z,38.20
2019-01-22T18:05:28.096Z,34.97
2019-01-22T18:07:55.663Z,37.93
2019-01-22T18:10:23.208Z,37.40
2019-01-22T18:12:50.779Z,30.03
2019-01-22T18:15:18.359Z,35.30
2019-01-22T18:17:45.924Z,71.03
2019-01-22T18:20:15.999Z,53.23
2019-01-22T18:22:43.571Z,43.73
2019-01-22T18:25:11.120Z,39.03
2019-01-22T18:27:38.683Z,40.13
2019-01-22T18:30:10.640Z,34.80
2019-01-22T18:32:38.185Z,28.90
2019-01-22T18:35:05.756Z,65.77
2019-01-22T18:37:33.296Z,47.30
2019-01-22T18:40:00.871Z,28.80
2019-01-22T18:42:28.415Z,24.67
2019-01-22T18:44:55.988Z,21.87
2019-01-22T18:47:23.548Z,24.40
2019-01-22T18:49:51.096Z,21.03
2019-01-22T18:52:19.653Z,28.20
2019-01-22T18:54:47.197Z,23.80
2019-01-22T18:57:14.891Z,25.83
2019-01-22T18:59:42.439Z,27.80
2019-01-22T19:02:11.001Z,22.30
2019-01-22T19:04:38.552Z,20.63
2019-01-22T19:07:06.104Z,27.73
2019-01-22T19:09:33.686Z,23.10
2019-01-22T19:12:01.262Z,25.13
2019-01-22T19:14:29.825Z,26.27
2019-01-22T19:16:57.571Z,21.53
2019-01-22T19:19:25.142Z,28.17
2019-01-22T19:21:52.700Z,26.67
2019-01-22T19:24:20.288Z,28.60
2019-01-22T19:26:48.864Z,35.43
2019-01-22T19:29:17.448Z,49.00
2019-01-22T19:31:45.042Z,34.63
2019-01-22T19:34:12.615Z,35.90
2019-01-22T19:36:40.308Z,35.77
2019-01-22T19:39:08.161Z,41.40
2019-01-22T19:41:35.710Z,31.97
2019-01-22T19:44:03.266Z,29.42
2019-01-22T19:46:30.856Z,27.70
2019-01-22T19:48:58.412Z,29.15
2019-01-22T19:51:25.983Z,25.53
2019-01-22T19:53:53.564Z,35.88
2019-01-22T19:56:21.110Z,34.23
2019-01-22T19:58:48.691Z,38.93
2019-01-22T20:01:17.003Z,27.43
2019-01-22T20:03:45.534Z,32.07
2019-01-22T20:06:13.088Z,23.00
2019-01-22T20:08:40.668Z,26.92
2019-01-22T20:11:08.215Z,22.40
2019-01-22T20:13:35.791Z,26.10
2019-01-22T20:16:03.391Z,33.10
2019-01-22T20:18:30.975Z,29.42
2019-01-22T20:20:58.524Z,25.10
2019-01-22T20:23:26.116Z,24.87
2019-01-22T20:25:53.663Z,26.27
2019-01-22T20:28:21.215Z,26.25
2019-01-22T20:30:49.559Z,23.10
2019-01-22T20:33:17.148Z,31.35
2019-01-22T20:35:44.691Z,25.40
2019-01-22T20:38:12.241Z,22.37
2019-01-22T20:40:39.839Z,23.12
2019-01-22T20:43:07.396Z,22.08
2019-01-22T20:45:35.152Z,18.50
2019-01-22T20:48:02.709Z,19.85
2019-01-22T20:50:30.284Z,20.80
2019-01-22T20:52:57.868Z,19.77
2019-01-22T20:55:25.416Z,33.42
2019-01-22T20:57:55.094Z,20.15
2019-01-22T21:00:21.339Z,21.05
2019-01-22T21:02:48.928Z,26.20
2019-01-22T21:05:18.219Z,23.08
2019-01-22T21:07:45.813Z,29.08
2019-01-22T21:10:16.072Z,28.48
2019-01-22T21:12:44.683Z,22.85
2019-01-22T21:15:12.275Z,23.05
2019-01-22T21:17:39.823Z,19.35
2019-01-22T21:20:08.212Z,22.27
2019-01-22T21:22:36.527Z,23.00
2019-01-22T21:25:04.108Z,23.45
2019-01-22T21:27:31.651Z,19.13
2019-01-22T21:29:59.201Z,21.67
2019-01-22T21:32:26.769Z,23.20
2019-01-22T21:34:54.320Z,25.20
2019-01-22T21:37:21.890Z,26.53
2019-01-22T21:39:49.441Z,23.70
2019-01-22T21:42:17.021Z,24.65
2019-01-22T21:44:44.568Z,20.65
2019-01-22T21:47:12.143Z,16.57
2019-01-22T21:49:39.694Z,21.90
2019-01-22T21:52:07.273Z,21.07
2019-01-22T21:54:36.643Z,17.80
2019-01-22T21:59:38.979Z,16.98
2019-01-22T22:02:06.519Z,17.40
2019-01-22T22:04:34.091Z,14.75
2019-01-22T22:07:01.635Z,18.50
2019-01-22T22:09:29.183Z,18.33
2019-01-22T22:11:57.770Z,19.58
2019-01-22T22:14:25.316Z,29.65
2019-01-22T22:16:53.653Z,23.03
2019-01-22T22:19:21.212Z,24.87
2019-01-22T22:21:48.789Z,21.83
2019-01-22T22:24:16.330Z,20.73
2019-01-22T22:26:43.912Z,23.80
2019-01-22T22:29:11.454Z,18.65
2019-01-22T22:31:39.001Z,19.95
2019-01-22T22:34:06.577Z,20.80
2019-01-22T22:36:34.572Z,20.57
2019-01-22T22:39:02.148Z,15.50
2019-01-22T22:41:29.692Z,20.08
2019-01-22T22:43:57.265Z,24.52
2019-01-22T22:46:24.828Z,24.57
2019-01-22T22:48:52.399Z,28.75
2019-01-22T22:51:22.811Z,14.60
2019-01-22T22:53:52.895Z,24.58
2019-01-22T22:56:20.503Z,17.33
2019-01-22T22:58:48.047Z,18.98
2019-01-22T23:01:15.621Z,17.77
2019-01-22T23:03:43.168Z,16.08
2019-01-22T23:06:10.740Z,18.67
2019-01-22T23:08:38.285Z,15.32
2019-01-22T23:11:05.843Z,17.73
2019-01-22T23:13:33.417Z,22.73
2019-01-22T23:16:00.975Z,18.27
2019-01-22T23:18:28.551Z,17.48
2019-01-22T23:20:56.095Z,15.73
2019-01-22T23:23:23.659Z,15.73
2019-01-22T23:25:51.199Z,15.43
2019-01-22T23:28:18.740Z,19.50
2019-01-22T23:30:46.307Z,21.73
2019-01-22T23:33:13.853Z,19.10
2019-01-22T23:35:41.419Z,17.50
2019-01-22T23:38:08.990Z,17.58
2019-01-22T23:40:36.566Z,18.17
2019-01-22T23:43:04.149Z,17.10
2019-01-22T23:48:05.560Z,16.60
2019-01-22T23:50:33.124Z,20.53
2019-01-22T23:53:00.694Z,20.85
2019-01-22T23:55:28.234Z,16.52
2019-01-22T23:57:56.091Z,16.92
